Time;durP1;ratioP1;P1;durP2;ratioP2;P2;SDS_P1;SDS_P2;PMS_P1;PMS_P2;Temp;Humidity;BMP_temperature;BMP_pressure;BME280_temperature;BME280_humidity;BME280_pressure;Samples;Min_cycle;Max_cycle;Signal;HPM_P1;HPM_P2
2024/04/11 00:00:53;;;;;;;4.97;1.13;;;;;;;;;;5516338;26;20012;-82
2024/04/11 00:03:19;;;;;;;4.45;1.48;;;;;;;;;;5513868;26;19997;-81
2024/04/11 00:05:44;;;;;;;5.93;1.52;;;;;;;;;;5523970;26;19998;-85
2024/04/11 00:08:10;;;;;;;3.20;1.17;;;;;;;;;;5513228;25;20477;-85
2024/04/11 00:10:36;;;;;;;3.05;1.10;;;;;;;;;;5520954;26;20517;-84
2024/04/11 00:13:01;;;;;;;4.18;1.17;;;;;;;;;;5525841;25;20013;-84
2024/04/11 00:15:26;;;;;;;4.57;1.27;;;;;;;;;;5521518;26;20056;-85
2024/04/11 00:17:52;;;;;;;4.90;1.40;;;;;;;;;;5521180;26;20002;-85
2024/04/11 00:20:17;;;;;;;7.60;1.20;;;;;;;;;;5523844;26;20041;-85
2024/04/11 00:22:46;;;;;;;4.85;1.30;;;;;;;;;;5520408;26;20005;-85
2024/04/11 00:25:12;;;;;;;5.15;1.33;;;;;;;;;;5516847;25;20007;-85
2024/04/11 00:27:37;;;;;;;7.82;1.80;;;;;;;;;;5524947;26;19997;-81
2024/04/11 00:30:03;;;;;;;4.97;1.30;;;;;;;;;;5518284;26;20510;-81
2024/04/11 00:32:30;;;;;;;3.80;1.17;;;;;;;;;;5522133;25;19998;-82
2024/04/11 00:34:55;;;;;;;4.60;1.27;;;;;;;;;;5503943;26;20005;-81
2024/04/11 00:37:24;;;;;;;4.93;1.33;;;;;;;;;;5506148;25;20001;-82
2024/04/11 00:39:50;;;;;;;4.93;1.17;;;;;;;;;;5500540;26;19998;-81
2024/04/11 00:42:17;;;;;;;5.85;1.55;;;;;;;;;;5500485;26;19994;-82
2024/04/11 00:44:44;;;;;;;4.07;1.52;;;;;;;;;;5520264;26;19997;-81
2024/04/11 00:47:09;;;;;;;7.88;1.40;;;;;;;;;;5496463;26;20006;-81
2024/04/11 00:49:39;;;;;;;3.88;1.20;;;;;;;;;;5509923;25;20029;-82
2024/04/11 00:52:07;;;;;;;4.82;1.40;;;;;;;;;;5511482;26;20008;-81
2024/04/11 00:54:34;;;;;;;8.30;2.08;;;;;;;;;;5513970;26;19994;-82
2024/04/11 00:57:03;;;;;;;6.45;1.15;;;;;;;;;;5475864;26;20008;-82
2024/04/11 00:59:28;;;;;;;4.65;1.20;;;;;;;;;;5517971;26;20012;-81
2024/04/11 01:01:54;;;;;;;6.78;1.58;;;;;;;;;;5518566;26;20376;-82
2024/04/11 01:04:19;;;;;;;5.72;1.40;;;;;;;;;;5451356;21;20027;-82
2024/04/11 01:07:07;;;;;;;5.28;1.35;;;;;;;;;;5364374;26;20004;-82
2024/04/11 01:09:38;;;;;;;4.70;1.30;;;;;;;;;;5368530;26;20008;-82
2024/04/11 01:12:04;;;;;;;4.45;1.20;;;;;;;;;;5406732;26;20069;-81
2024/04/11 01:14:33;;;;;;;8.85;1.83;;;;;;;;;;5400126;26;20004;-81
2024/04/11 01:16:58;;;;;;;5.25;1.45;;;;;;;;;;5409432;26;20005;-82
2024/04/11 01:19:24;;;;;;;4.90;1.92;;;;;;;;;;5366462;26;20005;-82
2024/04/11 01:21:50;;;;;;;5.97;1.33;;;;;;;;;;5359038;26;20004;-82
2024/04/11 01:24:15;;;;;;;4.38;1.40;;;;;;;;;;5393234;26;20466;-82
2024/04/11 01:26:41;;;;;;;4.90;1.70;;;;;;;;;;5374671;26;20016;-82
2024/04/11 01:29:08;;;;;;;7.47;1.98;;;;;;;;;;5436210;26;20417;-81
2024/04/11 01:31:34;;;;;;;7.72;1.50;;;;;;;;;;5369492;26;20535;-82
2024/04/11 01:33:59;;;;;;;8.38;1.35;;;;;;;;;;5370959;26;20000;-82
2024/04/11 01:36:25;;;;;;;6.32;1.50;;;;;;;;;;5436908;26;20469;-82
2024/04/11 01:38:50;;;;;;;5.30;1.27;;;;;;;;;;5404315;26;20369;-82
2024/04/11 01:41:16;;;;;;;7.93;1.40;;;;;;;;;;5375985;26;20360;-82
2024/04/11 01:43:41;;;;;;;6.45;1.17;;;;;;;;;;5368044;26;20008;-82
2024/04/11 01:46:07;;;;;;;7.32;1.38;;;;;;;;;;5433962;26;20001;-81
2024/04/11 01:48:33;;;;;;;4.97;1.30;;;;;;;;;;5407201;26;20000;-82
2024/04/11 01:50:58;;;;;;;6.85;1.30;;;;;;;;;;5366947;26;20000;-82
2024/04/11 01:53:24;;;;;;;7.13;2.03;;;;;;;;;;5450716;26;20007;-82
2024/04/11 01:55:49;;;;;;;3.42;1.17;;;;;;;;;;5404503;26;20398;-82
2024/04/11 01:58:16;;;;;;;5.82;1.40;;;;;;;;;;5403280;26;20000;-81
2024/04/11 02:00:43;;;;;;;4.82;1.42;;;;;;;;;;5442637;26;20000;-82
2024/04/11 02:03:09;;;;;;;8.15;1.60;;;;;;;;;;5472416;26;19999;-82
2024/04/11 02:05:37;;;;;;;4.70;1.60;;;;;;;;;;5404492;26;19996;-82
2024/04/11 02:08:03;;;;;;;4.60;1.35;;;;;;;;;;5469547;26;20080;-81
2024/04/11 02:10:29;;;;;;;4.82;1.45;;;;;;;;;;5432559;26;20493;-82
2024/04/11 02:12:56;;;;;;;6.65;1.40;;;;;;;;;;5434629;26;20009;-82
2024/04/11 02:15:24;;;;;;;6.03;1.55;;;;;;;;;;5456431;26;20073;-82
2024/04/11 02:17:50;;;;;;;5.05;1.55;;;;;;;;;;5439702;26;20011;-82
2024/04/11 02:20:16;;;;;;;5.25;1.48;;;;;;;;;;5403361;26;19996;-81
2024/04/11 02:22:43;;;;;;;6.05;1.33;;;;;;;;;;5401882;26;19996;-82
2024/04/11 02:25:09;;;;;;;6.57;1.40;;;;;;;;;;5461167;26;20438;-81
2024/04/11 02:27:35;;;;;;;6.88;1.65;;;;;;;;;;5404830;26;19996;-81
2024/04/11 02:30:01;;;;;;;5.55;1.58;;;;;;;;;;5443155;26;20008;-82
2024/04/11 02:32:27;;;;;;;5.25;1.50;;;;;;;;;;5439076;26;20090;-81
2024/04/11 02:34:53;;;;;;;6.25;2.08;;;;;;;;;;5432869;26;20460;-82
2024/04/11 02:37:18;;;;;;;6.38;2.17;;;;;;;;;;5464368;26;20005;-82
2024/04/11 02:39:44;;;;;;;6.40;1.50;;;;;;;;;;5401446;26;20000;-82
2024/04/11 02:42:10;;;;;;;6.07;1.50;;;;;;;;;;5444176;26;20000;-81
2024/04/11 02:44:35;;;;;;;4.97;1.30;;;;;;;;;;5466820;26;20000;-82
2024/04/11 02:47:01;;;;;;;4.55;1.20;;;;;;;;;;5469577;26;20429;-82
2024/04/11 02:49:27;;;;;;;6.13;1.35;;;;;;;;;;5439132;26;20052;-82
2024/04/11 02:51:53;;;;;;;6.18;1.40;;;;;;;;;;5442340;26;19999;-82
2024/04/11 02:54:19;;;;;;;3.72;1.30;;;;;;;;;;5407803;26;20007;-81
2024/04/11 02:56:45;;;;;;;6.43;1.60;;;;;;;;;;5408311;26;20015;-82
2024/04/11 02:59:11;;;;;;;4.28;1.40;;;;;;;;;;5439154;26;20003;-82
2024/04/11 03:01:39;;;;;;;5.32;1.67;;;;;;;;;;5466691;26;20015;-82
2024/04/11 03:04:05;;;;;;;4.65;1.42;;;;;;;;;;5474312;26;20000;-82
2024/04/11 03:06:31;;;;;;;3.67;1.33;;;;;;;;;;5437583;26;20016;-82
2024/04/11 03:08:58;;;;;;;5.28;1.50;;;;;;;;;;5407152;26;20012;-82
2024/04/11 03:11:24;;;;;;;6.05;1.60;;;;;;;;;;5442507;26;20369;-82
2024/04/11 03:13:50;;;;;;;4.30;1.38;;;;;;;;;;5406000;26;20032;-81
2024/04/11 03:16:18;;;;;;;5.75;1.30;;;;;;;;;;5442534;26;20473;-82
2024/04/11 03:18:44;;;;;;;6.45;1.60;;;;;;;;;;5407954;26;19999;-82
2024/04/11 03:21:09;;;;;;;5.90;1.65;;;;;;;;;;5443857;26;19999;-83
2024/04/11 03:23:35;;;;;;;4.97;1.33;;;;;;;;;;5407532;26;20333;-82
2024/04/11 03:26:00;;;;;;;6.78;1.70;;;;;;;;;;5407748;26;20345;-82
2024/04/11 03:28:26;;;;;;;5.13;1.52;;;;;;;;;;5431576;26;19996;-82
2024/04/11 03:31:05;;;;;;;5.30;1.40;;;;;;;;;;5441527;26;20000;-82
2024/04/11 03:33:35;;;;;;;5.07;1.33;;;;;;;;;;5471566;26;20338;-82
2024/04/11 03:36:06;;;;;;;4.20;1.40;;;;;;;;;;5474291;26;20015;-82
2024/04/11 03:38:32;;;;;;;5.65;1.40;;;;;;;;;;5397460;26;20044;-82
2024/04/11 03:40:58;;;;;;;6.85;1.40;;;;;;;;;;5471822;26;20036;-82
2024/04/11 03:43:27;;;;;;;4.40;1.20;;;;;;;;;;5443612;26;20072;-81
2024/04/11 03:46:02;;;;;;;4.35;1.52;;;;;;;;;;5437431;26;20083;-82
2024/04/11 03:48:28;;;;;;;6.03;1.50;;;;;;;;;;5474451;26;20469;-82
2024/04/11 03:50:56;;;;;;;5.88;1.50;;;;;;;;;;5417017;26;20004;-82
2024/04/11 03:53:22;;;;;;;5.22;1.50;;;;;;;;;;5406120;26;20015;-82
2024/04/11 03:55:47;;;;;;;4.22;1.25;;;;;;;;;;5443992;26;20079;-82
2024/04/11 03:58:16;;;;;;;4.55;1.40;;;;;;;;;;5442605;26;20007;-82
2024/04/11 04:00:45;;;;;;;4.90;1.20;;;;;;;;;;5475152;26;20000;-82
2024/04/11 04:03:11;;;;;;;5.35;1.60;;;;;;;;;;5402073;26;20076;-82
2024/04/11 04:05:36;;;;;;;8.02;1.98;;;;;;;;;;5405921;26;20008;-82
2024/04/11 04:08:04;;;;;;;4.35;1.23;;;;;;;;;;5443973;26;20007;-81
2024/04/11 04:10:31;;;;;;;3.78;1.40;;;;;;;;;;5406674;26;20015;-82
2024/04/11 04:12:58;;;;;;;4.10;1.25;;;;;;;;;;5473103;26;20465;-81
2024/04/11 04:15:24;;;;;;;6.57;1.35;;;;;;;;;;5442732;26;20011;-82
2024/04/11 04:17:51;;;;;;;6.65;1.30;;;;;;;;;;5399630;26;20004;-82
2024/04/11 04:20:16;;;;;;;5.55;1.30;;;;;;;;;;5406935;26;20020;-82
2024/04/11 04:22:42;;;;;;;5.88;1.40;;;;;;;;;;5395818;26;20011;-82
2024/04/11 04:25:11;;;;;;;4.20;1.20;;;;;;;;;;5459398;26;20057;-82
2024/04/11 04:27:39;;;;;;;4.00;1.17;;;;;;;;;;5460430;26;19999;-82
2024/04/11 04:30:09;;;;;;;5.15;1.13;;;;;;;;;;5440556;26;20021;-82
2024/04/11 04:32:36;;;;;;;5.40;1.40;;;;;;;;;;5443837;26;20007;-82
2024/04/11 04:35:02;;;;;;;5.78;1.48;;;;;;;;;;5443714;26;19995;-82
2024/04/11 04:37:27;;;;;;;5.70;1.30;;;;;;;;;;5455751;26;20080;-82
2024/04/11 04:39:53;;;;;;;6.28;1.67;;;;;;;;;;5402012;26;19995;-82
2024/04/11 04:42:19;;;;;;;4.13;1.23;;;;;;;;;;5406926;26;20000;-82
2024/04/11 04:44:46;;;;;;;5.82;1.50;;;;;;;;;;5468021;26;20075;-81
2024/04/11 04:47:16;;;;;;;8.95;1.55;;;;;;;;;;5438927;26;20003;-81
2024/04/11 04:49:44;;;;;;;7.00;1.30;;;;;;;;;;5433558;26;19992;-82
2024/04/11 04:52:10;;;;;;;5.57;1.48;;;;;;;;;;5440873;26;20000;-82
2024/04/11 04:54:35;;;;;;;5.63;1.42;;;;;;;;;;5436816;26;20015;-82
2024/04/11 04:57:01;;;;;;;7.22;1.48;;;;;;;;;;5442897;26;20000;-82
2024/04/11 04:59:26;;;;;;;5.20;1.33;;;;;;;;;;5399865;26;19996;-82
2024/04/11 05:01:53;;;;;;;3.22;1.13;;;;;;;;;;5439766;26;20475;-82
2024/04/11 05:04:20;;;;;;;4.38;1.10;;;;;;;;;;5473709;26;20011;-82
2024/04/11 05:06:49;;;;;;;6.32;1.40;;;;;;;;;;5442257;26;20449;-81
2024/04/11 05:09:14;;;;;;;4.25;1.13;;;;;;;;;;5441850;26;19999;-82
2024/04/11 05:11:40;;;;;;;4.22;1.17;;;;;;;;;;5441824;26;19995;-82
2024/04/11 05:14:07;;;;;;;3.92;1.10;;;;;;;;;;5442992;26;20004;-82
2024/04/11 05:16:34;;;;;;;4.38;1.02;;;;;;;;;;5422777;26;20003;-82
2024/04/11 05:18:59;;;;;;;6.47;1.48;;;;;;;;;;5437835;26;20450;-82
2024/04/11 05:21:26;;;;;;;6.82;1.35;;;;;;;;;;5470091;26;20073;-82
2024/04/11 05:23:54;;;;;;;3.72;1.35;;;;;;;;;;5442709;26;20048;-82
2024/04/11 05:26:23;;;;;;;4.70;1.13;;;;;;;;;;5442206;26;20003;-82
2024/04/11 05:28:53;;;;;;;5.72;1.50;;;;;;;;;;5403860;26;20477;-82
2024/04/11 05:31:25;;;;;;;6.22;1.25;;;;;;;;;;5431910;26;20010;-82
2024/04/11 05:33:53;;;;;;;4.45;1.30;;;;;;;;;;5468630;26;20031;-82
2024/04/11 05:36:25;;;;;;;4.82;1.15;;;;;;;;;;5465228;26;19999;-82
2024/04/11 05:38:51;;;;;;;6.57;1.92;;;;;;;;;;5401170;26;19999;-83
2024/04/11 05:41:17;;;;;;;8.63;1.42;;;;;;;;;;5402578;26;20003;-83
2024/04/11 05:43:43;;;;;;;4.88;1.30;;;;;;;;;;5457549;26;20007;-82
2024/04/11 05:46:17;;;;;;;4.55;1.25;;;;;;;;;;5467722;26;20097;-82
2024/04/11 05:48:43;;;;;;;5.60;1.23;;;;;;;;;;5401613;26;20476;-82
2024/04/11 05:51:10;;;;;;;5.63;1.08;;;;;;;;;;5470985;26;20000;-82
2024/04/11 05:53:40;;;;;;;5.53;1.20;;;;;;;;;;5439123;26;20011;-82
2024/04/11 05:56:07;;;;;;;4.72;1.17;;;;;;;;;;5436702;26;20007;-82
2024/04/11 05:58:33;;;;;;;8.15;1.45;;;;;;;;;;5470451;26;20608;-82
2024/04/11 06:01:01;;;;;;;4.68;1.50;;;;;;;;;;5398715;26;20014;-82
2024/04/11 06:03:29;;;;;;;4.35;1.13;;;;;;;;;;5404182;26;20036;-82
2024/04/11 06:05:55;;;;;;;4.10;1.27;;;;;;;;;;5459869;26;20339;-82
2024/04/11 06:08:23;;;;;;;3.17;1.00;;;;;;;;;;5443640;26;20015;-83
2024/04/11 06:10:49;;;;;;;5.47;1.38;;;;;;;;;;5441238;26;20015;-82
2024/04/11 06:13:16;;;;;;;4.40;1.05;;;;;;;;;;5466047;26;20013;-82
2024/04/11 06:15:42;;;;;;;4.75;1.20;;;;;;;;;;5470246;26;20083;-81
2024/04/11 06:18:09;;;;;;;5.68;1.10;;;;;;;;;;5474904;26;20473;-82
2024/04/11 06:20:38;;;;;;;4.15;1.10;;;;;;;;;;5444006;26;20000;-82
2024/04/11 06:23:08;;;;;;;4.30;1.15;;;;;;;;;;5475138;26;20064;-82
2024/04/11 06:25:37;;;;;;;5.55;1.45;;;;;;;;;;5447598;26;20015;-82
2024/04/11 06:28:04;;;;;;;7.65;1.08;;;;;;;;;;5461745;26;20004;-82
2024/04/11 06:30:38;;;;;;;3.75;1.17;;;;;;;;;;5409204;26;19995;-82
2024/04/11 06:33:08;;;;;;;5.55;1.10;;;;;;;;;;5436145;26;20036;-82
2024/04/11 06:35:36;;;;;;;4.15;1.30;;;;;;;;;;5444006;26;19991;-83
2024/04/11 06:38:03;;;;;;;4.10;1.10;;;;;;;;;;5472025;26;20464;-82
2024/04/11 06:40:32;;;;;;;4.13;1.05;;;;;;;;;;5404521;26;20473;-82
2024/04/11 06:42:59;;;;;;;4.78;1.35;;;;;;;;;;5429754;26;20014;-81
2024/04/11 06:45:25;;;;;;;4.03;1.20;;;;;;;;;;5441536;26;20014;-81
2024/04/11 06:47:52;;;;;;;3.55;1.25;;;;;;;;;;5444593;26;19999;-80
2024/04/11 06:50:19;;;;;;;6.05;1.67;;;;;;;;;;5474584;26;20010;-80
2024/04/11 06:52:45;;;;;;;4.30;1.20;;;;;;;;;;5404487;26;19996;-81
2024/04/11 06:55:14;;;;;;;5.45;1.40;;;;;;;;;;5401197;26;20014;-80
2024/04/11 06:57:44;;;;;;;6.35;1.35;;;;;;;;;;5464245;26;19996;-81
2024/04/11 07:00:35;;;;;;;5.22;1.30;;;;;;;;;;5432385;26;19997;-80
2024/04/11 07:03:13;;;;;;;3.92;1.50;;;;;;;;;;5450075;26;20461;-81
2024/04/11 07:05:47;;;;;;;5.70;1.67;;;;;;;;;;5432787;26;19999;-81
2024/04/11 07:08:14;;;;;;;6.18;1.50;;;;;;;;;;5396621;26;20014;-80
2024/04/11 07:10:46;;;;;;;6.60;1.60;;;;;;;;;;5404433;26;20015;-80
2024/04/11 07:13:12;;;;;;;5.85;1.58;;;;;;;;;;5458491;26;19996;-80
2024/04/11 07:15:42;;;;;;;6.65;1.98;;;;;;;;;;5468414;26;20003;-80
2024/04/11 07:18:19;;;;;;;4.30;1.23;;;;;;;;;;5408529;26;20039;-80
2024/04/11 07:20:50;;;;;;;7.55;1.60;;;;;;;;;;5404911;26;20019;-80
2024/04/11 07:23:17;;;;;;;4.20;1.40;;;;;;;;;;5467133;26;20013;-81
2024/04/11 07:25:43;;;;;;;7.75;1.42;;;;;;;;;;5443741;26;20452;-81
2024/04/11 07:28:09;;;;;;;4.75;1.45;;;;;;;;;;5437632;26;20045;-80
2024/04/11 07:30:35;;;;;;;5.63;1.25;;;;;;;;;;5441325;26;20445;-80
2024/04/11 07:33:02;;;;;;;4.10;1.40;;;;;;;;;;5470229;26;20036;-80
2024/04/11 07:35:30;;;;;;;5.90;1.60;;;;;;;;;;5473991;26;20100;-80
2024/04/11 07:37:58;;;;;;;5.80;1.35;;;;;;;;;;5409045;26;20019;-80
2024/04/11 07:40:32;;;;;;;4.03;1.50;;;;;;;;;;5469099;26;20000;-80
2024/04/11 07:43:09;;;;;;;3.90;1.50;;;;;;;;;;5443082;26;20011;-80
2024/04/11 07:45:40;;;;;;;4.70;1.27;;;;;;;;;;5468491;26;19996;-80
2024/04/11 07:48:09;;;;;;;6.60;1.58;;;;;;;;;;5402842;26;20389;-81
2024/04/11 07:50:35;;;;;;;3.75;1.20;;;;;;;;;;5401646;26;20000;-81
2024/04/11 07:53:02;;;;;;;4.22;1.60;;;;;;;;;;5404495;26;20076;-81
2024/04/11 07:55:28;;;;;;;5.03;1.90;;;;;;;;;;5472174;26;19999;-81
2024/04/11 07:57:53;;;;;;;4.55;1.58;;;;;;;;;;5406102;26;19996;-81
2024/04/11 08:00:27;;;;;;;3.25;1.58;;;;;;;;;;5404756;26;20025;-81
2024/04/11 08:02:56;;;;;;;5.15;1.58;;;;;;;;;;5440890;26;20023;-81
2024/04/11 08:05:25;;;;;;;4.82;1.60;;;;;;;;;;5472504;25;20454;-81
2024/04/11 08:07:53;;;;;;;4.63;1.42;;;;;;;;;;5469556;26;20349;-81
2024/04/11 08:10:20;;;;;;;3.83;1.50;;;;;;;;;;5400229;26;20000;-81
2024/04/11 08:12:47;;;;;;;6.53;2.30;;;;;;;;;;5442461;26;20442;-81
2024/04/11 08:15:14;;;;;;;6.40;1.92;;;;;;;;;;5404650;26;20015;-81
2024/04/11 08:17:42;;;;;;;5.85;1.77;;;;;;;;;;5406580;26;20365;-81
2024/04/11 08:20:14;;;;;;;6.40;1.80;;;;;;;;;;5433020;26;20000;-81
2024/04/11 08:22:43;;;;;;;5.30;2.03;;;;;;;;;;5405104;26;20083;-81
2024/04/11 08:25:12;;;;;;;6.15;1.70;;;;;;;;;;5443075;26;20015;-81
2024/04/11 08:27:48;;;;;;;4.47;1.58;;;;;;;;;;5401942;26;19996;-81
2024/04/11 08:30:15;;;;;;;6.03;2.08;;;;;;;;;;5395910;26;19999;-81
2024/04/11 08:32:47;;;;;;;5.95;2.10;;;;;;;;;;5437499;26;20011;-81
2024/04/11 08:35:17;;;;;;;3.80;1.65;;;;;;;;;;5396380;26;20469;-80
2024/04/11 08:37:51;;;;;;;4.00;2.00;;;;;;;;;;5395409;26;20482;-81
2024/04/11 08:40:21;;;;;;;3.92;1.75;;;;;;;;;;5472696;26;20345;-80
2024/04/11 08:42:50;;;;;;;8.27;2.50;;;;;;;;;;5442738;26;20000;-81
2024/04/11 08:45:16;;;;;;;4.40;1.85;;;;;;;;;;5459708;26;20000;-81
2024/04/11 08:47:42;;;;;;;5.65;2.22;;;;;;;;;;5471812;26;20069;-81
2024/04/11 08:50:07;;;;;;;6.07;2.22;;;;;;;;;;5440915;26;20230;-81
2024/04/11 08:52:34;;;;;;;5.40;1.90;;;;;;;;;;5472542;26;20465;-81
2024/04/11 08:55:01;;;;;;;5.45;2.35;;;;;;;;;;5471380;26;20022;-82
2024/04/11 08:57:27;;;;;;;5.85;2.00;;;;;;;;;;5396829;26;20353;-81
2024/04/11 08:59:53;;;;;;;7.57;2.65;;;;;;;;;;5421335;26;20434;-81
2024/04/11 09:02:19;;;;;;;6.75;2.08;;;;;;;;;;5466486;26;20000;-80
2024/04/11 09:04:44;;;;;;;6.32;2.47;;;;;;;;;;5438469;26;20488;-81
2024/04/11 09:07:21;;;;;;;7.25;2.75;;;;;;;;;;5400642;26;20007;-81
2024/04/11 09:09:50;;;;;;;7.30;2.35;;;;;;;;;;5423899;26;20044;-81
2024/04/11 09:12:17;;;;;;;6.28;2.63;;;;;;;;;;5471249;26;20060;-80
2024/04/11 09:14:47;;;;;;;7.13;3.15;;;;;;;;;;5468495;26;20024;-81
2024/04/11 09:17:14;;;;;;;5.82;2.42;;;;;;;;;;5443416;26;20477;-81
2024/04/11 09:19:43;;;;;;;5.57;2.65;;;;;;;;;;5441205;26;20007;-81
2024/04/11 09:22:10;;;;;;;8.75;2.90;;;;;;;;;;5471447;26;20353;-81
2024/04/11 09:24:38;;;;;;;8.30;3.67;;;;;;;;;;5442530;26;20118;-84
2024/04/11 09:27:05;;;;;;;6.15;2.90;;;;;;;;;;5429110;26;20004;-86
2024/04/11 09:29:32;;;;;;;7.00;3.38;;;;;;;;;;5405274;26;20010;-85
2024/04/11 09:31:59;;;;;;;8.20;3.75;;;;;;;;;;5393903;26;19995;-87
2024/04/11 09:34:29;;;;;;;7.55;3.70;;;;;;;;;;5441769;26;20521;-87
2024/04/11 09:36:59;;;;;;;5.75;3.50;;;;;;;;;;5405811;26;20010;-86
2024/04/11 09:39:56;;;;;;;5.82;3.83;;;;;;;;;;5400506;26;20015;-85
2024/04/11 09:42:25;;;;;;;7.05;3.65;;;;;;;;;;5434693;26;20426;-85
2024/04/11 09:44:55;;;;;;;8.38;4.03;;;;;;;;;;5396480;26;20001;-84
2024/04/11 09:47:34;;;;;;;9.05;5.00;;;;;;;;;;5436897;26;20000;-90
2024/04/11 09:50:04;;;;;;;6.28;4.05;;;;;;;;;;5470019;26;20000;-86
2024/04/11 09:52:34;;;;;;;8.15;4.60;;;;;;;;;;5413246;26;19996;-86
2024/04/11 09:55:03;;;;;;;11.70;5.20;;;;;;;;;;5404622;26;20004;-85
2024/04/11 09:57:31;;;;;;;8.45;4.45;;;;;;;;;;5437711;26;20000;-86
2024/04/11 09:59:58;;;;;;;10.60;4.90;;;;;;;;;;5474641;26;19995;-90
2024/04/11 10:02:28;;;;;;;7.82;4.72;;;;;;;;;;5441293;26;20035;-86
2024/04/11 10:04:57;;;;;;;8.40;5.20;;;;;;;;;;5440085;26;20016;-86
2024/04/11 10:07:25;;;;;;;10.48;5.65;;;;;;;;;;5431901;26;20004;-85
2024/04/11 10:09:54;;;;;;;9.13;5.22;;;;;;;;;;5469371;26;20466;-85
2024/04/11 10:12:20;;;;;;;13.98;5.90;;;;;;;;;;5465938;26;20004;-86
2024/04/11 10:14:49;;;;;;;11.35;5.95;;;;;;;;;;5466799;26;20004;-84
2024/04/11 10:17:14;;;;;;;8.07;5.50;;;;;;;;;;5405053;26;20510;-85
2024/04/11 10:19:43;;;;;;;7.80;5.40;;;;;;;;;;5400426;26;20011;-85
2024/04/11 10:22:15;;;;;;;9.10;5.50;;;;;;;;;;5434826;26;20019;-87
2024/04/11 10:24:49;;;;;;;7.88;5.82;;;;;;;;;;5439507;26;20007;-87
2024/04/11 10:27:21;;;;;;;12.13;5.65;;;;;;;;;;5436192;26;20449;-88
2024/04/11 10:29:47;;;;;;;8.52;5.65;;;;;;;;;;5441130;26;20011;-87
2024/04/11 10:32:26;;;;;;;10.30;6.00;;;;;;;;;;5396327;26;20011;-85
2024/04/11 10:34:58;;;;;;;14.68;5.97;;;;;;;;;;5405372;26;20006;-81
2024/04/11 10:37:29;;;;;;;10.30;5.75;;;;;;;;;;5400356;26;20003;-81
2024/04/11 10:39:58;;;;;;;11.32;6.03;;;;;;;;;;5418875;26;20003;-81
2024/04/11 10:42:37;;;;;;;9.63;5.97;;;;;;;;;;5461518;26;20005;-80
2024/04/11 10:45:12;;;;;;;10.43;6.20;;;;;;;;;;5397564;26;20449;-81
2024/04/11 10:47:41;;;;;;;8.00;5.75;;;;;;;;;;5435565;26;20000;-81
2024/04/11 10:50:13;;;;;;;10.90;6.93;;;;;;;;;;5441626;26;20000;-81
2024/04/11 10:52:45;;;;;;;10.35;6.05;;;;;;;;;;5444862;26;20015;-81
2024/04/11 10:55:28;;;;;;;9.30;6.35;;;;;;;;;;5434064;26;20010;-81
2024/04/11 10:58:13;;;;;;;9.65;6.20;;;;;;;;;;5456548;26;20037;-81
2024/04/11 11:06:13;;;;;;;10.68;6.70;;;;;;;;;;5410641;26;20449;-81
2024/04/11 11:08:42;;;;;;;10.47;7.17;;;;;;;;;;5437565;26;20073;-81
2024/04/11 11:11:11;;;;;;;10.25;7.30;;;;;;;;;;5406529;26;20372;-81
2024/04/11 11:13:40;;;;;;;11.63;7.88;;;;;;;;;;5406166;26;19999;-81
2024/04/11 11:16:07;;;;;;;11.40;8.40;;;;;;;;;;5473186;26;20011;-82
2024/04/11 11:18:39;;;;;;;12.95;8.60;;;;;;;;;;5407691;26;20011;-81
2024/04/11 11:21:07;;;;;;;13.23;8.98;;;;;;;;;;5473589;26;20036;-82
2024/04/11 11:23:34;;;;;;;11.70;8.48;;;;;;;;;;5443331;26;20055;-81
2024/04/11 11:26:01;;;;;;;12.77;8.48;;;;;;;;;;5472107;26;20338;-82
2024/04/11 11:28:27;;;;;;;12.65;8.40;;;;;;;;;;5399760;26;20067;-81
2024/04/11 11:30:56;;;;;;;12.70;9.45;;;;;;;;;;5401705;26;19999;-82
2024/04/11 11:33:23;;;;;;;12.38;9.20;;;;;;;;;;5407144;26;19999;-82
2024/04/11 11:35:50;;;;;;;12.93;8.70;;;;;;;;;;5407716;26;20506;-82
2024/04/11 11:38:16;;;;;;;12.90;8.85;;;;;;;;;;5404175;26;20022;-81
2024/04/11 11:40:47;;;;;;;11.65;8.77;;;;;;;;;;5468876;26;20019;-82
2024/04/11 11:43:16;;;;;;;13.10;9.00;;;;;;;;;;5433229;26;19995;-82
2024/04/11 11:48:31;;;;;;;12.93;9.55;;;;;;;;;;5403633;26;20006;-81
2024/04/11 11:51:00;;;;;;;12.63;9.45;;;;;;;;;;5404378;26;20037;-81
2024/04/11 11:53:45;;;;;;;14.13;8.55;;;;;;;;;;5418251;26;20000;-82
2024/04/11 11:56:22;;;;;;;10.60;8.50;;;;;;;;;;5440559;26;20347;-83
2024/04/11 11:58:50;;;;;;;11.52;8.40;;;;;;;;;;5470941;26;20011;-82
2024/04/11 12:01:29;;;;;;;13.60;8.82;;;;;;;;;;5435322;26;20417;-82
2024/04/11 12:03:59;;;;;;;10.15;8.30;;;;;;;;;;5406758;26;19999;-82
2024/04/11 12:06:33;;;;;;;10.95;7.70;;;;;;;;;;5408257;26;20446;-82
2024/04/11 12:09:10;;;;;;;12.35;8.68;;;;;;;;;;5406569;26;20027;-83
2024/04/11 12:11:49;;;;;;;10.18;8.60;;;;;;;;;;5468666;26;20004;-82
2024/04/11 12:14:22;;;;;;;14.38;8.65;;;;;;;;;;5440424;26;19995;-82
2024/04/11 12:16:52;;;;;;;11.57;9.13;;;;;;;;;;5474854;26;20011;-82
2024/04/11 12:19:19;;;;;;;12.18;9.02;;;;;;;;;;5405781;26;19999;-82
2024/04/11 12:21:45;;;;;;;11.65;9.20;;;;;;;;;;5437454;26;20004;-83
2024/04/11 12:24:12;;;;;;;10.45;8.90;;;;;;;;;;5406260;26;20085;-82
2024/04/11 12:26:39;;;;;;;11.20;9.43;;;;;;;;;;5435579;26;20008;-82
2024/04/11 12:29:05;;;;;;;13.63;9.20;;;;;;;;;;5460651;26;20012;-82
2024/04/11 12:31:32;;;;;;;11.73;9.10;;;;;;;;;;5407149;26;20014;-83
2024/04/11 12:33:59;;;;;;;13.15;9.25;;;;;;;;;;5473967;26;20000;-83
2024/04/11 12:36:56;;;;;;;11.25;8.60;;;;;;;;;;5429865;26;19999;-83
2024/04/11 12:39:22;;;;;;;11.30;8.48;;;;;;;;;;5440069;26;20042;-83
2024/04/11 12:41:50;;;;;;;12.48;9.30;;;;;;;;;;5472215;26;20469;-82
2024/04/11 12:44:24;;;;;;;12.93;9.13;;;;;;;;;;5441089;26;19996;-83
2024/04/11 12:46:57;;;;;;;13.07;8.50;;;;;;;;;;5443232;26;19996;-83
2024/04/11 12:49:29;;;;;;;;;;;;;;;;;;5456724;26;20343;-83
2024/04/11 12:51:57;;;;;;;13.85;9.02;;;;;;;;;;5439031;26;19932;-83
2024/04/11 12:54:29;;;;;;;10.57;8.57;;;;;;;;;;5438853;26;20351;-82
2024/04/11 12:56:56;;;;;;;13.63;9.05;;;;;;;;;;5404412;26;20000;-83
2024/04/11 12:59:30;;;;;;;10.40;9.07;;;;;;;;;;5402129;26;20011;-83
2024/04/11 13:01:56;;;;;;;12.13;8.98;;;;;;;;;;5462759;26;20031;-83
2024/04/11 13:04:32;;;;;;;11.50;8.50;;;;;;;;;;5406591;26;20011;-83
2024/04/11 13:07:10;;;;;;;11.80;8.80;;;;;;;;;;5472875;26;20008;-83
2024/04/11 13:09:48;;;;;;;11.23;7.85;;;;;;;;;;5407405;26;19995;-83
2024/04/11 13:12:17;;;;;;;11.15;8.55;;;;;;;;;;5466580;26;20011;-83
2024/04/11 13:14:57;;;;;;;10.95;8.50;;;;;;;;;;5395842;26;20012;-83
2024/04/11 13:17:23;;;;;;;10.70;8.00;;;;;;;;;;5388719;26;20012;-82
2024/04/11 13:19:51;;;;;;;10.60;8.23;;;;;;;;;;5440570;26;20081;-83
2024/04/11 13:22:17;;;;;;;10.80;8.35;;;;;;;;;;5441774;26;20097;-82
2024/04/11 13:24:42;;;;;;;11.40;8.80;;;;;;;;;;5468663;26;20003;-82
2024/04/11 13:27:09;;;;;;;10.27;8.00;;;;;;;;;;5404923;26;20019;-82
2024/04/11 13:29:35;;;;;;;10.40;8.10;;;;;;;;;;5403766;26;20047;-82
2024/04/11 13:32:04;;;;;;;10.02;7.82;;;;;;;;;;5438404;26;20450;-82
2024/04/11 13:34:39;;;;;;;10.40;7.82;;;;;;;;;;5445728;26;20380;-82
2024/04/11 13:37:12;;;;;;;9.38;7.45;;;;;;;;;;5442207;26;20004;-82
2024/04/11 13:39:56;;;;;;;8.73;6.93;;;;;;;;;;5406038;26;20018;-83
2024/04/11 13:42:22;;;;;;;10.30;7.28;;;;;;;;;;5473203;26;20006;-82
2024/04/11 13:44:48;;;;;;;10.27;7.32;;;;;;;;;;5404033;26;20438;-82
2024/04/11 13:47:15;;;;;;;12.68;7.53;;;;;;;;;;5469423;26;20011;-82
2024/04/11 13:49:57;;;;;;;8.60;7.07;;;;;;;;;;5440973;26;20008;-82
2024/04/11 13:52:26;;;;;;;9.43;7.55;;;;;;;;;;5441687;26;20087;-82
2024/04/11 13:54:55;;;;;;;10.18;7.50;;;;;;;;;;5431977;26;20027;-83
2024/04/11 13:57:21;;;;;;;11.85;8.50;;;;;;;;;;5470051;26;19999;-83
2024/04/11 13:59:57;;;;;;;11.25;7.60;;;;;;;;;;5403708;26;20012;-83
2024/04/11 14:02:59;;;;;;;8.88;7.22;;;;;;;;;;5471218;26;20003;-83
2024/04/11 14:05:45;;;;;;;13.32;8.13;;;;;;;;;;5386756;26;20018;-88
2024/04/11 14:08:13;;;;;;;11.63;8.50;;;;;;;;;;5471052;26;20016;-87
2024/04/11 14:10:40;;;;;;;10.13;8.05;;;;;;;;;;5439029;26;20001;-87
2024/04/11 14:13:05;;;;;;;10.23;8.30;;;;;;;;;;5393731;26;20088;-82
2024/04/11 14:15:31;;;;;;;11.60;7.90;;;;;;;;;;5403517;26;20008;-82
2024/04/11 14:17:57;;;;;;;11.65;7.82;;;;;;;;;;5404926;26;20003;-82
2024/04/11 14:20:31;;;;;;;11.38;8.15;;;;;;;;;;5402525;26;20036;-83
2024/04/11 14:23:14;;;;;;;11.65;8.07;;;;;;;;;;5401193;26;20011;-84
2024/04/11 14:25:43;;;;;;;12.18;8.40;;;;;;;;;;5443825;26;19996;-84
2024/04/11 14:28:15;;;;;;;10.73;7.75;;;;;;;;;;5464937;26;20410;-84
2024/04/11 14:30:48;;;;;;;9.83;7.37;;;;;;;;;;5409768;26;20004;-83
2024/04/11 14:33:42;;;;;;;11.68;7.90;;;;;;;;;;5405945;26;20010;-83
2024/04/11 14:38:37;;;;;;;12.75;10.35;;;;;;;;;;5404446;26;19995;-83
2024/04/11 14:41:04;;;;;;;13.25;10.40;;;;;;;;;;5406558;26;20012;-83
2024/04/11 14:43:31;;;;;;;16.88;12.40;;;;;;;;;;5437543;26;20012;-83
2024/04/11 14:45:58;;;;;;;12.48;10.48;;;;;;;;;;5440523;26;20022;-84
2024/04/11 14:48:33;;;;;;;15.00;10.60;;;;;;;;;;5409510;26;20010;-84
2024/04/11 14:51:03;;;;;;;14.15;10.52;;;;;;;;;;5407052;26;20101;-83
2024/04/11 14:53:33;;;;;;;13.15;10.50;;;;;;;;;;5407535;26;20004;-83
2024/04/11 14:56:14;;;;;;;12.95;10.30;;;;;;;;;;5391293;26;20000;-84
2024/04/11 14:58:42;;;;;;;13.20;9.68;;;;;;;;;;5441363;26;20013;-83